createdAt,value
2018-01-07T00:00:49.818Z,18.90
2018-01-07T00:03:17.444Z,18.23
2018-01-07T00:05:45.063Z,13.73
2018-01-07T00:08:12.630Z,17.77
2018-01-07T00:10:40.281Z,14.33
2018-01-07T00:13:08.237Z,15.90
2018-01-07T00:15:35.807Z,23.40
2018-01-07T00:18:03.382Z,18.40
2018-01-07T00:20:30.946Z,11.47
2018-01-07T00:22:59.356Z,15.53
2018-01-07T00:25:27.714Z,12.00
2018-01-07T00:27:55.354Z,8.90
2018-01-07T00:30:23.015Z,7.73
2018-01-07T00:32:51.384Z,6.87
2018-01-07T00:35:18.954Z,9.03
2018-01-07T00:37:46.579Z,5.90
2018-01-07T00:40:14.965Z,9.03
2018-01-07T00:42:43.272Z,6.67
2018-01-07T00:45:11.650Z,5.23
2018-01-07T00:47:39.226Z,9.10
2018-01-07T00:50:06.795Z,5.70
2018-01-07T00:52:35.154Z,6.40
2018-01-07T00:55:03.519Z,7.70
2018-01-07T00:57:31.865Z,9.53
2018-01-07T00:59:59.439Z,8.10
2018-01-07T01:02:27.006Z,6.10
2018-01-07T01:04:54.625Z,7.70
2018-01-07T01:07:22.940Z,7.73
2018-01-07T01:09:51.355Z,4.83
2018-01-07T01:12:19.723Z,5.50
2018-01-07T01:14:48.121Z,5.00
2018-01-07T01:17:15.698Z,6.73
2018-01-07T01:19:43.334Z,6.77
2018-01-07T01:22:11.602Z,5.97
2018-01-07T01:24:39.170Z,7.27
2018-01-07T01:27:07.523Z,9.50
2018-01-07T01:29:36.010Z,5.83
2018-01-07T01:32:04.395Z,12.30
2018-01-07T01:34:31.966Z,5.07
2018-01-07T01:37:00.566Z,9.67
2018-01-07T01:39:28.238Z,5.10
2018-01-07T01:41:56.758Z,5.87
2018-01-07T01:44:24.379Z,9.40
2018-01-07T01:46:52.036Z,6.20
2018-01-07T01:49:23.506Z,5.50
2018-01-07T01:51:51.080Z,4.80
2018-01-07T01:54:19.414Z,5.53
2018-01-07T01:56:47.680Z,6.70
2018-01-07T01:59:15.251Z,7.33
2018-01-07T02:01:42.930Z,3.67
2018-01-07T02:04:10.494Z,2.83
2018-01-07T02:06:38.075Z,4.27
2018-01-07T02:09:05.687Z,3.17
2018-01-07T02:11:33.264Z,5.40
2018-01-07T02:14:00.931Z,4.73
2018-01-07T02:16:28.503Z,5.07
2018-01-07T02:18:56.087Z,4.53
2018-01-07T02:21:23.715Z,3.77
2018-01-07T02:23:51.290Z,4.90
2018-01-07T02:26:18.868Z,3.97
2018-01-07T02:28:46.463Z,3.43
2018-01-07T02:31:14.040Z,5.50
2018-01-07T02:33:41.656Z,6.67
2018-01-07T02:36:09.413Z,6.43
2018-01-07T02:38:37.572Z,9.20
2018-01-07T02:41:05.148Z,6.97
2018-01-07T02:43:32.736Z,4.33
2018-01-07T02:46:00.383Z,5.47
2018-01-07T02:48:28.011Z,5.53
2018-01-07T02:50:55.587Z,5.43
2018-01-07T02:53:23.243Z,5.90
2018-01-07T02:55:50.853Z,8.40
2018-01-07T02:58:18.460Z,5.77
2018-01-07T03:00:46.038Z,5.93
2018-01-07T03:03:13.683Z,10.50
2018-01-07T03:05:41.253Z,3.77
2018-01-07T03:08:08.836Z,7.93
2018-01-07T03:10:36.503Z,5.33
2018-01-07T03:13:04.076Z,5.93
2018-01-07T03:15:31.644Z,6.03
2018-01-07T03:17:59.254Z,9.73
2018-01-07T03:20:26.917Z,14.07
2018-01-07T03:22:54.494Z,21.37
2018-01-07T03:25:22.146Z,30.93
2018-01-07T03:27:49.726Z,21.23
2018-01-07T03:30:17.426Z,30.73
2018-01-07T03:32:45.014Z,38.97
2018-01-07T03:35:12.595Z,35.70
2018-01-07T03:37:40.219Z,37.53
2018-01-07T03:40:07.798Z,31.07
2018-01-07T03:42:35.383Z,34.40
2018-01-07T03:45:03.087Z,30.60
2018-01-07T03:47:30.660Z,28.43
2018-01-07T03:49:58.400Z,37.60
2018-01-07T03:52:25.978Z,32.70
2018-01-07T03:54:53.594Z,27.57
2018-01-07T03:57:21.401Z,27.67
2018-01-07T03:59:48.983Z,30.33
2018-01-07T04:02:16.575Z,19.10
2018-01-07T04:04:44.237Z,20.40
2018-01-07T04:07:11.910Z,21.53
2018-01-07T04:09:39.491Z,25.57
2018-01-07T04:12:07.115Z,18.10
2018-01-07T04:14:34.784Z,19.30
2018-01-07T04:17:02.363Z,14.10
2018-01-07T04:19:29.972Z,18.03
2018-01-07T04:21:57.577Z,14.83
2018-01-07T04:24:25.159Z,12.87
2018-01-07T04:26:52.737Z,13.60
2018-01-07T04:29:20.319Z,14.60
2018-01-07T04:31:47.899Z,17.53
2018-01-07T04:34:15.479Z,19.70
2018-01-07T04:36:43.106Z,12.60
2018-01-07T04:39:10.704Z,7.77
2018-01-07T04:41:38.286Z,12.63
2018-01-07T04:44:05.924Z,11.47
2018-01-07T04:46:33.510Z,12.03
2018-01-07T04:49:01.094Z,12.80
2018-01-07T04:51:28.708Z,12.63
2018-01-07T04:53:56.377Z,11.87
2018-01-07T04:56:24.225Z,10.97
2018-01-07T04:58:51.845Z,13.80
2018-01-07T05:01:19.513Z,11.70
2018-01-07T05:03:47.090Z,11.33
2018-01-07T05:06:14.719Z,16.00
2018-01-07T05:08:42.303Z,12.93
2018-01-07T05:11:09.877Z,8.50
2018-01-07T05:13:37.465Z,10.63
2018-01-07T05:16:05.135Z,6.43
2018-01-07T05:18:32.762Z,11.73
2018-01-07T05:21:00.332Z,5.90
2018-01-07T05:23:27.899Z,8.73
2018-01-07T05:25:55.641Z,8.60
2018-01-07T05:28:23.213Z,9.60
2018-01-07T05:30:50.811Z,8.70
2018-01-07T05:33:18.383Z,7.23
2018-01-07T05:35:46.027Z,8.53
2018-01-07T05:38:13.647Z,4.97
2018-01-07T05:40:41.255Z,10.17
2018-01-07T05:43:11.934Z,7.30
2018-01-07T05:45:39.722Z,11.10
2018-01-07T05:48:07.294Z,6.77
2018-01-07T05:50:34.898Z,6.13
2018-01-07T05:53:02.492Z,7.60
2018-01-07T05:55:30.098Z,7.73
2018-01-07T05:57:57.771Z,6.80
2018-01-07T06:00:25.426Z,9.10
2018-01-07T06:02:52.999Z,7.93
2018-01-07T06:05:20.575Z,5.83
2018-01-07T06:07:48.250Z,7.47
2018-01-07T06:10:15.828Z,9.10
2018-01-07T06:12:43.506Z,8.17
2018-01-07T06:15:11.093Z,6.00
2018-01-07T06:17:38.669Z,5.80
2018-01-07T06:20:06.248Z,8.93
2018-01-07T06:22:33.828Z,6.87
2018-01-07T06:25:01.495Z,6.50
2018-01-07T06:27:29.079Z,6.17
2018-01-07T06:29:56.648Z,5.90
2018-01-07T06:32:24.219Z,4.80
2018-01-07T06:34:51.799Z,3.67
2018-01-07T06:37:19.405Z,3.73
2018-01-07T06:39:47.015Z,5.33
2018-01-07T06:42:14.591Z,5.33
2018-01-07T06:44:42.203Z,5.20
2018-01-07T06:47:09.783Z,3.60
2018-01-07T06:49:37.356Z,5.93
2018-01-07T06:52:04.951Z,5.10
2018-01-07T06:54:32.633Z,4.10
2018-01-07T06:57:00.243Z,5.97
2018-01-07T06:59:27.819Z,7.40
2018-01-07T07:01:55.666Z,3.73
2018-01-07T07:04:23.239Z,3.30
2018-01-07T07:06:50.810Z,4.40
2018-01-07T07:09:18.424Z,6.37
2018-01-07T07:11:45.994Z,5.97
2018-01-07T07:14:13.643Z,3.40
2018-01-07T07:16:41.210Z,7.00
2018-01-07T07:19:08.807Z,4.63
2018-01-07T07:21:36.384Z,4.80
2018-01-07T07:24:03.954Z,4.27
2018-01-07T07:26:31.527Z,5.10
2018-01-07T07:28:59.097Z,6.60
2018-01-07T07:31:26.707Z,3.60
2018-01-07T07:33:54.446Z,5.60
2018-01-07T07:36:22.048Z,5.10
2018-01-07T07:38:51.300Z,3.90
2018-01-07T07:41:20.559Z,5.47
2018-01-07T07:43:48.146Z,5.50
2018-01-07T07:46:15.723Z,4.30
2018-01-07T07:48:43.298Z,5.27
2018-01-07T07:51:10.915Z,4.70
2018-01-07T07:53:38.500Z,4.53
2018-01-07T07:56:06.079Z,4.40
2018-01-07T07:58:33.655Z,3.07
2018-01-07T08:01:01.237Z,2.97
2018-01-07T08:03:28.936Z,2.67
2018-01-07T08:05:56.508Z,4.70
2018-01-07T08:08:24.115Z,4.20
2018-01-07T08:10:51.771Z,6.73
2018-01-07T08:13:19.385Z,9.57
2018-01-07T08:15:46.995Z,4.70
2018-01-07T08:18:16.459Z,3.60
2018-01-07T08:20:44.044Z,7.90
2018-01-07T08:23:12.614Z,4.97
2018-01-07T08:25:40.204Z,3.37
2018-01-07T08:28:07.863Z,6.53
2018-01-07T08:30:35.445Z,5.93
2018-01-07T08:33:03.100Z,4.90
2018-01-07T08:35:30.705Z,2.73
2018-01-07T08:37:58.323Z,4.83
2018-01-07T08:40:25.940Z,3.00
2018-01-07T08:42:53.606Z,4.07
2018-01-07T08:45:21.340Z,3.10
2018-01-07T08:47:48.914Z,3.20
2018-01-07T08:50:16.564Z,2.10
2018-01-07T08:52:44.144Z,3.63
2018-01-07T08:55:11.860Z,2.63
2018-01-07T08:57:39.448Z,5.73
2018-01-07T09:00:07.027Z,8.40
2018-01-07T09:02:34.598Z,2.40
2018-01-07T09:05:02.179Z,4.40
2018-01-07T09:07:29.867Z,3.27
2018-01-07T09:09:57.544Z,5.33
2018-01-07T09:12:25.155Z,3.30
2018-01-07T09:14:52.809Z,1.87
2018-01-07T09:17:20.447Z,1.90
2018-01-07T09:19:48.082Z,3.53
2018-01-07T09:22:16.567Z,2.40
2018-01-07T09:24:44.147Z,1.90
2018-01-07T09:27:11.722Z,1.87
2018-01-07T09:29:39.299Z,3.80
2018-01-07T09:32:06.871Z,1.50
2018-01-07T09:37:12.324Z,2.80
2018-01-07T09:39:39.897Z,1.70
2018-01-07T09:42:07.474Z,3.00
2018-01-07T09:44:35.059Z,2.10
2018-01-07T09:47:02.720Z,2.13
2018-01-07T09:49:30.378Z,1.93
2018-01-07T09:51:57.963Z,1.87
2018-01-07T09:54:25.536Z,2.27
2018-01-07T09:56:53.112Z,4.67
2018-01-07T09:59:20.771Z,4.87
2018-01-07T10:01:48.499Z,3.40
2018-01-07T10:04:16.086Z,1.60
2018-01-07T10:06:43.719Z,5.60
2018-01-07T10:09:11.927Z,4.40
2018-01-07T10:11:39.542Z,2.53
2018-01-07T10:14:07.120Z,3.90
2018-01-07T10:16:34.694Z,3.73
2018-01-07T10:19:02.301Z,6.00
2018-01-07T10:21:29.918Z,3.70
2018-01-07T10:23:57.501Z,5.40
2018-01-07T10:26:25.111Z,3.03
2018-01-07T10:28:52.683Z,5.77
2018-01-07T10:31:20.270Z,5.30
2018-01-07T10:33:47.908Z,8.83
2018-01-07T10:36:15.487Z,1.83
2018-01-07T10:38:43.130Z,2.53
2018-01-07T10:41:10.716Z,10.20
2018-01-07T10:43:38.352Z,2.40
2018-01-07T10:46:06.069Z,1.87
2018-01-07T10:48:33.641Z,2.57
2018-01-07T10:51:01.303Z,8.43
2018-01-07T10:53:29.719Z,3.83
2018-01-07T10:55:57.295Z,1.50
2018-01-07T10:58:24.870Z,1.67
2018-01-07T11:00:58.160Z,2.70
2018-01-07T11:03:25.730Z,2.30
2018-01-07T11:05:53.359Z,1.60
2018-01-07T11:08:21.025Z,5.93
2018-01-07T11:10:48.718Z,1.90
2018-01-07T11:13:16.347Z,4.37
2018-01-07T11:15:43.964Z,1.80
2018-01-07T11:18:11.686Z,2.33
2018-01-07T11:20:39.331Z,1.90
2018-01-07T11:23:07.173Z,2.70
2018-01-07T11:25:34.876Z,1.53
2018-01-07T11:28:02.583Z,2.70
2018-01-07T11:30:30.282Z,1.73
2018-01-07T11:32:57.948Z,3.17
2018-01-07T11:35:25.584Z,2.00
2018-01-07T11:37:53.164Z,2.03
2018-01-07T11:40:20.742Z,2.53
2018-01-07T11:42:48.414Z,2.50
2018-01-07T11:45:16.034Z,2.80
2018-01-07T11:47:43.616Z,6.03
2018-01-07T11:50:11.189Z,3.77
2018-01-07T11:52:38.910Z,5.53
2018-01-07T11:55:06.542Z,5.27
2018-01-07T11:57:34.378Z,4.30
2018-01-07T12:00:02.050Z,2.23
2018-01-07T12:02:29.708Z,1.83
2018-01-07T12:04:57.427Z,1.70
2018-01-07T12:07:25.146Z,1.53
2018-01-07T12:09:53.425Z,1.43
2018-01-07T12:12:21.051Z,2.40
2018-01-07T12:14:48.651Z,1.63
2018-01-07T12:17:16.240Z,1.43
2018-01-07T12:19:43.933Z,2.77
2018-01-07T12:22:11.548Z,3.63
2018-01-07T12:24:39.197Z,2.83
2018-01-07T12:27:06.956Z,3.20
2018-01-07T12:29:34.532Z,3.00
2018-01-07T12:32:02.148Z,2.30
2018-01-07T12:34:29.727Z,1.10
2018-01-07T12:36:57.307Z,1.87
2018-01-07T12:39:24.923Z,3.77
2018-01-07T12:41:52.534Z,1.33
2018-01-07T12:44:20.725Z,2.37
2018-01-07T12:46:48.347Z,2.07
2018-01-07T12:49:16.444Z,1.93
2018-01-07T12:51:44.637Z,1.57
2018-01-07T12:54:12.455Z,2.10
2018-01-07T12:56:40.151Z,1.70
2018-01-07T12:59:07.764Z,3.40
2018-01-07T13:01:35.343Z,2.67
2018-01-07T13:04:03.060Z,4.10
2018-01-07T13:06:30.687Z,3.10
2018-01-07T13:08:58.355Z,1.70
2018-01-07T13:11:26.759Z,3.40
2018-01-07T13:13:54.375Z,3.97
2018-01-07T13:16:22.023Z,1.73
2018-01-07T13:18:49.604Z,3.37
2018-01-07T13:21:17.196Z,1.97
2018-01-07T13:23:44.773Z,5.43
2018-01-07T13:26:12.352Z,2.20
2018-01-07T13:28:39.974Z,2.70
2018-01-07T13:31:07.606Z,2.77
2018-01-07T13:33:35.191Z,2.40
2018-01-07T13:36:02.772Z,2.27
2018-01-07T13:38:30.353Z,4.03
2018-01-07T13:40:57.932Z,3.13
2018-01-07T13:43:25.563Z,4.20
2018-01-07T13:45:53.141Z,3.33
2018-01-07T13:48:20.763Z,2.03
2018-01-07T13:50:48.339Z,2.97
2018-01-07T13:53:15.915Z,2.60
2018-01-07T13:55:43.532Z,2.73
2018-01-07T13:58:11.116Z,2.77
2018-01-07T14:00:38.694Z,2.30
2018-01-07T14:03:06.275Z,5.37
2018-01-07T14:05:33.895Z,2.87
2018-01-07T14:08:01.542Z,4.87
2018-01-07T14:10:29.243Z,2.50
2018-01-07T14:12:56.872Z,2.67
2018-01-07T14:15:24.535Z,3.90
2018-01-07T14:17:52.194Z,3.00
2018-01-07T14:20:19.778Z,5.00
2018-01-07T14:22:47.440Z,5.73
2018-01-07T14:25:15.046Z,2.13
2018-01-07T14:27:42.799Z,5.20
2018-01-07T14:30:10.392Z,2.93
2018-01-07T14:32:38.084Z,4.20
2018-01-07T14:35:05.769Z,4.40
2018-01-07T14:37:33.406Z,4.80
2018-01-07T14:40:00.997Z,5.50
2018-01-07T14:42:28.655Z,2.97
2018-01-07T14:44:56.288Z,3.30
2018-01-07T14:47:23.987Z,5.43
2018-01-07T14:49:51.648Z,5.40
2018-01-07T14:52:19.241Z,3.10
2018-01-07T14:54:46.886Z,4.07
2018-01-07T14:57:14.459Z,2.43
2018-01-07T14:59:42.060Z,3.70
2018-01-07T15:02:09.649Z,5.30
2018-01-07T15:04:37.231Z,3.90
2018-01-07T15:07:04.887Z,7.13
2018-01-07T15:09:32.465Z,1.97
2018-01-07T15:12:00.088Z,5.83
2018-01-07T15:14:27.676Z,4.50
2018-01-07T15:16:55.323Z,7.93
2018-01-07T15:19:22.915Z,4.55
2018-01-07T15:21:50.533Z,5.97
2018-01-07T15:24:18.175Z,5.50
2018-01-07T15:26:45.791Z,8.83
2018-01-07T15:29:13.371Z,11.20
2018-01-07T15:31:41.899Z,4.47
2018-01-07T15:34:09.520Z,5.00
2018-01-07T15:36:37.208Z,4.37
2018-01-07T15:39:04.838Z,6.50
2018-01-07T15:41:32.423Z,5.45
2018-01-07T15:44:00.114Z,2.80
2018-01-07T15:46:27.757Z,4.03
2018-01-07T15:48:55.421Z,6.10
2018-01-07T15:51:23.094Z,5.45
2018-01-07T15:53:50.707Z,6.37
2018-01-07T15:56:18.358Z,6.03
2018-01-07T15:58:45.984Z,6.78
2018-01-07T16:01:13.616Z,7.05
2018-01-07T16:03:41.210Z,4.82
2018-01-07T16:06:08.874Z,4.90
2018-01-07T16:08:36.553Z,5.78
2018-01-07T16:11:04.161Z,6.47
2018-01-07T16:13:31.851Z,9.25
2018-01-07T16:15:59.443Z,4.07
2018-01-07T16:18:27.071Z,11.10
2018-01-07T16:20:54.733Z,6.20
2018-01-07T16:23:22.356Z,5.40
2018-01-07T16:25:50.064Z,4.80
2018-01-07T16:28:17.833Z,8.07
2018-01-07T16:30:45.491Z,6.00
2018-01-07T16:33:13.121Z,5.83
2018-01-07T16:35:40.714Z,4.47
2018-01-07T16:38:08.426Z,3.87
2018-01-07T16:40:36.036Z,5.80
2018-01-07T16:43:03.627Z,9.63
2018-01-07T16:45:31.263Z,7.35
2018-01-07T16:47:58.856Z,5.37
2018-01-07T16:50:26.442Z,7.47
2018-01-07T16:52:54.031Z,12.50
2018-01-07T16:55:21.652Z,5.18
2018-01-07T16:57:49.299Z,7.25
2018-01-07T17:00:16.887Z,6.20
2018-01-07T17:02:44.516Z,11.98
2018-01-07T17:05:12.184Z,8.70
2018-01-07T17:07:39.922Z,5.12
2018-01-07T17:10:07.623Z,5.90
2018-01-07T17:12:35.333Z,6.75
2018-01-07T17:15:02.958Z,6.12
2018-01-07T17:17:30.602Z,6.05
2018-01-07T17:19:58.199Z,5.28
2018-01-07T17:22:25.798Z,5.32
2018-01-07T17:24:54.165Z,4.57
2018-01-07T17:27:21.839Z,6.78
2018-01-07T17:29:49.446Z,5.65
2018-01-07T17:32:17.028Z,4.83
2018-01-07T17:34:44.726Z,7.30
2018-01-07T17:37:12.315Z,7.80
2018-01-07T17:39:40.534Z,6.10
2018-01-07T17:42:08.223Z,6.47
2018-01-07T17:44:35.807Z,4.18
2018-01-07T17:47:03.400Z,6.93
2018-01-07T17:49:31.673Z,5.05
2018-01-07T17:51:59.307Z,6.40
2018-01-07T17:54:26.901Z,10.10
2018-01-07T17:56:55.071Z,6.60
2018-01-07T17:59:22.667Z,12.45
2018-01-07T18:01:52.013Z,5.70
2018-01-07T18:04:19.695Z,6.12
2018-01-07T18:06:49.860Z,11.40
2018-01-07T18:09:21.776Z,11.05
2018-01-07T18:11:49.371Z,7.20
2018-01-07T18:14:18.678Z,8.25
2018-01-07T18:16:47.275Z,9.65
2018-01-07T18:19:18.706Z,7.53
2018-01-07T18:21:49.286Z,9.25
2018-01-07T18:24:17.597Z,9.38
2018-01-07T18:26:48.009Z,5.60
2018-01-07T18:29:16.222Z,5.03
2018-01-07T18:31:44.131Z,8.13
2018-01-07T18:34:11.791Z,7.22
2018-01-07T18:36:39.392Z,11.05
2018-01-07T18:39:06.980Z,4.65
2018-01-07T18:41:34.596Z,7.05
2018-01-07T18:44:02.185Z,8.57
2018-01-07T18:46:29.950Z,9.32
2018-01-07T18:48:57.595Z,11.95
2018-01-07T18:51:25.195Z,6.93
2018-01-07T18:53:52.817Z,9.90
2018-01-07T18:56:20.520Z,4.05
2018-01-07T18:58:48.247Z,9.63
2018-01-07T19:01:15.853Z,8.48
2018-01-07T19:03:43.551Z,10.63
2018-01-07T19:06:11.238Z,9.95
2018-01-07T19:08:38.866Z,8.30
2018-01-07T19:11:06.491Z,4.05
2018-01-07T19:13:34.141Z,7.35
2018-01-07T19:16:01.706Z,11.63
2018-01-07T19:18:29.305Z,8.80
2018-01-07T19:20:56.898Z,9.10
2018-01-07T19:23:24.533Z,7.70
2018-01-07T19:25:52.130Z,10.32
2018-01-07T19:28:19.761Z,9.52
2018-01-07T19:30:47.599Z,9.52
2018-01-07T19:33:15.839Z,9.13
2018-01-07T19:35:43.496Z,7.20
2018-01-07T19:38:11.077Z,9.45
2018-01-07T19:40:38.668Z,6.78
2018-01-07T19:43:06.300Z,8.18
2018-01-07T19:45:33.896Z,11.30
2018-01-07T19:48:01.626Z,9.38
2018-01-07T19:50:29.220Z,6.70
2018-01-07T19:52:57.710Z,9.63
2018-01-07T19:55:25.386Z,7.15
2018-01-07T19:57:53.049Z,9.52
2018-01-07T20:00:20.691Z,12.82
2018-01-07T20:02:48.280Z,6.97
2018-01-07T20:05:15.940Z,9.63
2018-01-07T20:07:43.571Z,9.02
2018-01-07T20:10:11.164Z,6.30
2018-01-07T20:12:38.763Z,15.10
2018-01-07T20:15:06.415Z,10.70
2018-01-07T20:17:35.725Z,11.38
2018-01-07T20:20:03.959Z,9.80
2018-01-07T20:22:32.275Z,14.70
2018-01-07T20:25:05.797Z,15.82
2018-01-07T20:28:05.356Z,19.83
2018-01-07T20:44:59.838Z,11.18
2018-01-07T20:47:27.473Z,12.75
2018-01-07T20:49:55.083Z,8.80
2018-01-07T20:52:22.921Z,9.95
2018-01-07T20:54:50.616Z,9.20
2018-01-07T20:57:18.445Z,11.43
2018-01-07T20:59:46.046Z,15.95
2018-01-07T21:02:13.758Z,9.82
2018-01-07T21:04:41.476Z,10.90
2018-01-07T21:07:09.069Z,13.88
2018-01-07T21:09:36.657Z,17.42
2018-01-07T21:12:04.359Z,16.33
2018-01-07T21:14:32.188Z,16.20
2018-01-07T21:16:59.787Z,17.02
2018-01-07T21:19:27.743Z,20.52
2018-01-07T21:21:55.402Z,17.80
2018-01-07T21:24:22.988Z,13.95
2018-01-07T21:26:50.682Z,10.35
2018-01-07T21:29:18.271Z,14.20
2018-01-07T21:31:45.971Z,12.68
2018-01-07T21:34:13.683Z,14.68
2018-01-07T21:36:41.270Z,18.58
2018-01-07T21:39:08.858Z,11.00
2018-01-07T21:41:36.794Z,13.27
2018-01-07T21:44:04.415Z,13.40
2018-01-07T21:46:32.086Z,23.20
2018-01-07T21:48:59.750Z,13.65
2018-01-07T21:51:27.347Z,10.23
2018-01-07T21:53:55.719Z,12.40
2018-01-07T21:56:23.299Z,9.13
2018-01-07T21:58:50.894Z,14.95
2018-01-07T22:04:30.241Z,13.85
2018-01-07T22:07:02.610Z,18.00
2018-01-07T22:09:30.272Z,22.45
2018-01-07T22:11:57.915Z,17.12
2018-01-07T22:14:25.511Z,14.20
2018-01-07T22:16:53.209Z,13.68
2018-01-07T22:19:20.823Z,14.32
2018-01-07T22:21:48.407Z,16.90
2018-01-07T22:24:16.031Z,14.73
2018-01-07T22:26:43.623Z,17.70
2018-01-07T22:29:11.271Z,19.87
2018-01-07T22:31:38.891Z,13.70
2018-01-07T22:34:06.516Z,16.87
2018-01-07T22:36:34.154Z,17.17
2018-01-07T22:39:01.755Z,16.33
2018-01-07T22:41:29.431Z,13.52
2018-01-07T22:43:57.055Z,18.67
2018-01-07T22:46:24.676Z,15.95
2018-01-07T22:48:52.418Z,20.40
2018-01-07T22:51:20.015Z,21.52
2018-01-07T22:53:47.623Z,26.12
2018-01-07T22:56:15.356Z,15.40
2018-01-07T22:58:43.024Z,17.25
2018-01-07T23:01:10.680Z,15.93
2018-01-07T23:03:38.268Z,20.27
2018-01-07T23:06:05.890Z,18.35
2018-01-07T23:08:33.486Z,17.12
2018-01-07T23:11:01.080Z,16.87
2018-01-07T23:13:28.673Z,19.90
2018-01-07T23:15:56.299Z,15.88
2018-01-07T23:18:23.919Z,11.68
2018-01-07T23:20:51.542Z,24.08
2018-01-07T23:23:19.122Z,16.12
2018-01-07T23:25:46.735Z,14.23
2018-01-07T23:28:14.360Z,15.20
2018-01-07T23:30:42.022Z,19.67
2018-01-07T23:33:12.087Z,12.95
2018-01-07T23:35:39.671Z,17.58
2018-01-07T23:38:07.258Z,17.70
2018-01-07T23:40:34.851Z,19.95
2018-01-07T23:43:02.437Z,19.12
2018-01-07T23:45:30.074Z,20.65
2018-01-07T23:47:57.672Z,26.55
2018-01-07T23:50:25.255Z,21.98
2018-01-07T23:52:52.839Z,27.17
2018-01-07T23:55:20.432Z,21.37
2018-01-07T23:57:48.069Z,21.42
